Time;durP1;ratioP1;P1;durP2;ratioP2;P2;SDS_P1;SDS_P2;PMS_P1;PMS_P2;Temp;Humidity;BMP_temperature;BMP_pressure;BME280_temperature;BME280_humidity;BME280_pressure;Samples;Min_cycle;Max_cycle;Signal;HPM_P1;HPM_P2
2023/11/26 00:01:53;;;;;;;6.93;3.40;;;2.10;1.00;;;;;;5080610;28;20481;-38
2023/11/26 00:04:19;;;;;;;7.83;3.17;;;2.20;1.00;;;;;;5096540;28;20498;-39
2023/11/26 00:06:45;;;;;;;6.13;3.20;;;2.20;1.00;;;;;;5094105;28;20191;-38
2023/11/26 00:09:11;;;;;;;15.40;8.00;;;2.20;1.00;;;;;;5095057;28;20737;-39
2023/11/26 00:11:37;;;;;;;18.67;9.07;;;2.20;1.00;;;;;;5095301;28;20426;-39
2023/11/26 00:14:03;;;;;;;24.00;11.83;;;2.20;1.00;;;;;;5077562;28;20263;-38
2023/11/26 00:16:36;;;;;;;34.80;15.50;;;2.20;1.00;;;;;;5096935;28;20852;-37
2023/11/26 00:19:01;;;;;;;18.50;9.97;;;2.20;1.00;;;;;;5095223;28;20760;-40
2023/11/26 00:21:27;;;;;;;7.30;4.57;;;2.30;1.00;;;;;;5095732;28;20406;-39
2023/11/26 00:23:53;;;;;;;18.00;7.20;;;2.20;1.00;;;;;;5079241;28;20784;-39
2023/11/26 00:26:19;;;;;;;32.97;14.73;;;2.20;1.00;;;;;;5095530;28;20430;-38
2023/11/26 00:28:44;;;;;;;36.80;19.87;;;2.20;1.00;;;;;;5095979;28;20185;-40
2023/11/26 00:31:10;;;;;;;13.73;8.73;;;2.20;1.00;;;;;;5095882;28;20240;-38
2023/11/26 00:33:35;;;;;;;10.70;6.00;;;2.20;1.00;;;;;;5096611;28;20176;-39
2023/11/26 00:36:01;;;;;;;16.57;9.03;;;2.20;1.00;;;;;;5077599;28;20210;-41
2023/11/26 00:38:27;;;;;;;14.23;7.97;;;2.20;1.00;;;;;;5095980;28;20207;-39
2023/11/26 00:40:52;;;;;;;21.77;12.80;;;2.20;1.00;;;;;;5096908;28;20550;-40
2023/11/26 00:43:18;;;;;;;5.90;4.80;;;2.20;1.00;;;;;;5095966;28;20490;-41
2023/11/26 00:45:43;;;;;;;29.47;16.90;;;2.20;1.00;;;;;;5078225;28;20168;-39
2023/11/26 00:48:10;;;;;;;19.97;10.77;;;2.20;1.00;;;;;;5097483;28;20179;-40
2023/11/26 00:50:36;;;;;;;19.37;11.83;;;2.20;1.00;;;;;;5096003;28;20553;-38
2023/11/26 00:53:02;;;;;;;30.27;19.97;;;2.20;1.00;;;;;;5096253;28;20517;-39
2023/11/26 00:55:28;;;;;;;11.27;5.30;;;2.20;1.00;;;;;;5097862;28;20275;-40
2023/11/26 00:57:54;;;;;;;17.43;10.97;;;2.20;1.00;;;;;;5079473;28;21051;-40
2023/11/26 01:00:19;;;;;;;8.63;6.50;;;2.20;1.00;;;;;;5096510;28;20505;-41
2023/11/26 01:02:46;;;;;;;15.97;10.07;;;2.20;1.00;;;;;;5098116;28;20275;-40
2023/11/26 01:05:12;;;;;;;11.50;7.17;;;2.20;1.00;;;;;;5098044;28;20237;-40
2023/11/26 01:07:38;;;;;;;10.43;7.00;;;2.30;1.00;;;;;;5079291;28;20476;-41
2023/11/26 01:10:04;;;;;;;7.30;5.00;;;2.30;1.00;;;;;;5098128;28;20430;-39
2023/11/26 01:12:30;;;;;;;5.90;4.90;;;2.30;1.00;;;;;;5095089;28;20191;-41
2023/11/26 01:14:56;;;;;;;7.07;5.17;;;2.30;1.00;;;;;;5093174;28;20871;-40
2023/11/26 01:17:21;;;;;;;8.47;4.00;;;2.30;1.00;;;;;;5093278;28;20462;-39
2023/11/26 01:19:47;;;;;;;7.00;3.90;;;2.30;1.00;;;;;;5093188;28;20181;-40
2023/11/26 01:22:13;;;;;;;7.43;3.90;;;2.30;1.00;;;;;;5075278;28;20185;-39
2023/11/26 01:24:38;;;;;;;12.20;4.50;;;2.40;99.90;;;;;;5093233;28;20204;-40
2023/11/26 01:27:04;;;;;;;7.27;4.60;;;2.30;99.90;;;;;;5094796;28;20657;-38
2023/11/26 01:29:30;;;;;;;8.20;4.27;;;2.30;99.90;;;;;;5096319;28;20185;-39
2023/11/26 01:31:55;;;;;;;7.10;4.60;;;2.30;99.90;;;;;;5096186;28;20224;-39
2023/11/26 01:34:21;;;;;;;5.30;3.60;;;2.30;99.90;;;;;;5095095;28;20188;-39
2023/11/26 01:36:47;;;;;;;4.40;3.70;;;2.30;99.90;;;;;;5095973;28;20282;-41
2023/11/26 01:39:12;;;;;;;5.40;2.93;;;2.30;99.90;;;;;;5096686;28;20184;-38
2023/11/26 01:41:38;;;;;;;5.63;3.30;;;2.30;99.90;;;;;;5095623;28;20606;-41
2023/11/26 01:44:04;;;;;;;3.93;2.90;;;2.30;99.90;;;;;;5094905;28;20235;-40
2023/11/26 01:46:31;;;;;;;5.57;3.40;;;2.30;99.90;;;;;;5094735;28;20211;-39
2023/11/26 01:48:57;;;;;;;5.93;3.10;;;2.30;99.90;;;;;;5095726;28;20172;-40
2023/11/26 01:51:24;;;;;;;4.07;3.10;;;2.30;99.90;;;;;;5096344;28;20735;-40
2023/11/26 01:53:52;;;;;;;6.70;3.20;;;2.30;99.90;;;;;;5078427;28;20430;-40
2023/11/26 01:56:18;;;;;;;3.77;2.60;;;2.30;99.90;;;;;;5096172;28;20434;-44
2023/11/26 01:58:44;;;;;;;4.40;2.70;;;2.30;99.90;;;;;;5095964;28;20429;-39
2023/11/26 02:01:11;;;;;;;3.90;3.30;;;2.30;99.90;;;;;;5095096;28;20430;-40
2023/11/26 02:03:37;;;;;;;7.90;3.10;;;2.30;99.90;;;;;;5075672;28;20743;-41
2023/11/26 02:06:03;;;;;;;5.97;2.60;;;2.30;99.90;;;;;;5093675;28;20519;-39
2023/11/26 02:08:31;;;;;;;7.13;3.40;;;2.30;99.90;;;;;;5075681;28;20567;-40
2023/11/26 02:10:57;;;;;;;3.77;2.80;;;2.20;99.90;;;;;;5091277;28;20525;-40
2023/11/26 02:13:23;;;;;;;5.93;3.80;;;2.20;99.90;;;;;;5092085;28;20513;-39
2023/11/26 02:15:48;;;;;;;4.00;3.40;;;2.20;99.90;;;;;;5092657;28;20608;-39
2023/11/26 02:18:14;;;;;;;4.43;3.00;;;2.20;99.90;;;;;;5092703;28;20192;-39
2023/11/26 02:20:40;;;;;;;3.33;2.20;;;2.20;99.90;;;;;;5092729;28;20462;-41
2023/11/26 02:23:06;;;;;;;4.63;3.20;;;2.10;99.90;;;;;;5093533;28;20191;-39
2023/11/26 02:25:31;;;;;;;4.40;2.80;;;2.10;99.90;;;;;;5094799;28;20208;-40
2023/11/26 02:27:59;;;;;;;5.17;2.40;;;2.10;99.90;;;;;;5095912;28;20494;-40
2023/11/26 02:30:24;;;;;;;6.50;2.90;;;2.10;99.90;;;;;;5098292;28;20636;-40
2023/11/26 02:32:51;;;;;;;5.03;2.67;;;2.10;99.90;;;;;;5098396;28;20418;-39
2023/11/26 02:35:18;;;;;;;5.47;2.80;;;2.10;99.90;;;;;;5098702;28;20188;-40
2023/11/26 02:37:45;;;;;;;3.60;2.70;;;2.10;99.90;;;;;;5097487;28;20433;-42
2023/11/26 02:40:11;;;;;;;6.13;3.10;;;2.00;99.90;;;;;;5098295;28;20436;-45
2023/11/26 02:42:37;;;;;;;5.97;2.93;;;2.00;99.90;;;;;;5098140;28;20935;-39
2023/11/26 02:45:05;;;;;;;4.00;2.43;;;1.90;99.90;;;;;;5080867;28;20273;-41
2023/11/26 02:47:31;;;;;;;2.63;2.43;;;1.90;99.90;;;;;;5097391;28;20791;-39
2023/11/26 02:49:57;;;;;;;3.73;2.50;;;1.90;99.90;;;;;;5097639;28;20418;-41
2023/11/26 02:52:23;;;;;;;7.63;2.43;;;1.80;99.90;;;;;;5097662;28;20753;-40
2023/11/26 02:54:48;;;;;;;3.53;2.10;;;1.80;99.90;;;;;;5098170;28;20421;-41
2023/11/26 02:57:14;;;;;;;6.67;2.40;;;1.80;99.90;;;;;;5097699;28;20207;-40
2023/11/26 02:59:43;;;;;;;4.30;2.50;;;1.80;99.90;;;;;;5079967;28;20180;-39
2023/11/26 03:02:09;;;;;;;2.87;2.57;;;1.70;99.90;;;;;;5097826;28;20468;-42
2023/11/26 03:04:37;;;;;;;3.07;2.77;;;1.70;99.90;;;;;;5098954;28;20477;-40
2023/11/26 03:07:03;;;;;;;5.33;2.37;;;1.70;99.90;;;;;;5097659;28;20642;-41
2023/11/26 03:14:53;;;;;;;3.50;2.40;;;1.70;99.90;;;;;;5096402;28;20425;-39
2023/11/26 03:17:19;;;;;;;4.43;2.80;;;1.70;99.90;;;;;;5096380;28;20934;-39
2023/11/26 03:19:46;;;;;;;8.00;3.77;;;1.60;99.90;;;;;;5093397;28;20456;-40
2023/11/26 03:22:11;;;;;;;6.93;3.13;;;1.60;99.90;;;;;;5095282;28;20490;-38
2023/11/26 03:24:37;;;;;;;6.73;4.13;;;1.60;99.90;;;;;;5095725;28;21014;-39
2023/11/26 03:27:43;;;;;;;11.93;3.53;;;1.60;99.90;;;;;;5097514;28;20173;-38
2023/11/26 03:30:11;;;;;;;10.03;3.73;;;1.50;99.90;;;;;;5094989;28;20557;-39
2023/11/26 03:32:37;;;;;;;10.53;4.50;;;1.50;99.90;;;;;;5096172;28;20490;-40
2023/11/26 03:35:03;;;;;;;8.40;4.30;;;1.50;99.90;;;;;;5098726;28;20429;-41
2023/11/26 03:37:29;;;;;;;12.60;6.03;;;1.40;99.90;;;;;;5098262;28;20419;-40
2023/11/26 03:39:54;;;;;;;14.00;6.10;;;1.40;99.90;;;;;;5098180;28;21007;-41
2023/11/26 03:42:20;;;;;;;15.37;6.80;;;1.40;99.90;;;;;;5096315;28;20422;-39
2023/11/26 03:44:45;;;;;;;8.13;3.90;;;1.40;99.90;;;;;;5096684;28;20465;-39
2023/11/26 03:47:11;;;;;;;7.90;4.27;;;1.30;99.90;;;;;;5096425;28;20188;-40
2023/11/26 03:49:38;;;;;;;7.20;4.43;;;1.30;99.90;;;;;;5096486;28;20458;-39
2023/11/26 03:52:03;;;;;;;6.10;3.83;;;1.30;99.90;;;;;;5077825;28;20426;-39
2023/11/26 03:54:29;;;;;;;9.30;4.07;;;1.20;99.90;;;;;;5097788;28;20495;-39
2023/11/26 03:56:54;;;;;;;7.13;3.40;;;1.20;99.90;;;;;;5097960;28;20185;-40
2023/11/26 03:59:21;;;;;;;7.20;2.53;;;1.20;99.90;;;;;;5097353;28;20249;-39
2023/11/26 04:01:46;;;;;;;4.63;2.63;;;1.10;99.90;;;;;;5097017;28;20192;-41
2023/11/26 04:04:12;;;;;;;3.43;2.13;;;1.10;99.90;;;;;;5097306;28;20501;-42
2023/11/26 04:06:38;;;;;;;6.37;3.00;;;1.10;99.90;;;;;;5097398;28;20272;-39
2023/11/26 04:09:03;;;;;;;3.63;2.40;;;1.10;1.00;;;;;;5096117;28;20172;-39
2023/11/26 04:11:29;;;;;;;3.63;2.70;;;1.10;1.00;;;;;;5096296;28;20470;-39
2023/11/26 04:13:55;;;;;;;4.43;2.67;;;1.10;1.00;;;;;;5095264;28;20857;-39
2023/11/26 04:16:20;;;;;;;3.40;2.70;;;1.20;1.00;;;;;;5094165;28;20176;-38
2023/11/26 04:18:46;;;;;;;4.07;1.83;;;1.20;1.00;;;;;;5094610;28;20215;-41
2023/11/26 04:21:12;;;;;;;3.33;1.93;;;1.20;1.00;;;;;;5093834;28;20204;-38
2023/11/26 04:23:38;;;;;;;4.83;2.10;;;1.20;1.00;;;;;;5094587;28;20181;-39
2023/11/26 04:26:04;;;;;;;3.07;2.27;;;1.30;1.00;;;;;;5095624;28;20724;-40
2023/11/26 04:28:30;;;;;;;2.30;1.60;;;1.30;1.00;;;;;;5095782;28;20407;-39
2023/11/26 04:30:57;;;;;;;4.53;2.43;;;1.40;1.00;;;;;;5078658;28;20501;-39
2023/11/26 04:33:22;;;;;;;5.93;2.53;;;1.40;1.00;;;;;;5097841;28;20434;-41
2023/11/26 04:35:48;;;;;;;3.00;2.27;;;1.50;1.00;;;;;;5097253;28;20516;-40
2023/11/26 04:38:13;;;;;;;2.90;2.17;;;1.50;1.00;;;;;;5097349;28;20184;-38
2023/11/26 04:40:39;;;;;;;10.20;3.10;;;1.50;1.00;;;;;;5097332;28;20232;-37
2023/11/26 04:43:06;;;;;;;3.10;2.17;;;1.60;1.00;;;;;;5097687;28;20253;-38
2023/11/26 04:45:31;;;;;;;5.10;3.23;;;1.60;1.00;;;;;;5097003;28;20489;-37
2023/11/26 04:47:57;;;;;;;3.97;2.40;;;1.60;1.00;;;;;;5096733;28;20426;-37
2023/11/26 04:50:23;;;;;;;3.37;1.80;;;1.60;1.00;;;;;;5095016;28;20586;-38
2023/11/26 04:52:50;;;;;;;5.30;2.30;;;1.60;99.90;;;;;;5096378;28;20499;-41
2023/11/26 04:55:19;;;;;;;2.73;2.00;;;1.50;99.90;;;;;;5096874;28;20275;-38
2023/11/26 04:57:46;;;;;;;2.60;2.30;;;1.50;99.90;;;;;;5095449;28;20854;-38
2023/11/26 05:00:13;;;;;;;4.50;2.93;;;1.60;99.90;;;;;;5094314;28;20708;-38
2023/11/26 05:02:40;;;;;;;4.63;2.40;;;1.60;99.90;;;;;;5094400;28;20816;-38
2023/11/26 05:05:08;;;;;;;3.40;2.47;;;1.70;99.90;;;;;;5094314;28;20490;-38
2023/11/26 05:07:36;;;;;;;2.90;2.10;;;1.70;99.90;;;;;;5094489;28;20577;-38
2023/11/26 05:10:01;;;;;;;4.83;2.10;;;1.70;99.90;;;;;;5094774;28;20724;-40
2023/11/26 05:12:27;;;;;;;4.00;2.20;;;1.70;99.90;;;;;;5094596;28;20714;-39
2023/11/26 05:14:53;;;;;;;3.20;1.90;;;1.70;99.90;;;;;;5094960;28;20188;-40
2023/11/26 05:17:18;;;;;;;4.80;2.00;;;1.70;99.90;;;;;;5093341;28;20187;-37
2023/11/26 05:19:45;;;;;;;2.90;2.00;;;1.70;99.90;;;;;;5094433;28;20428;-37
2023/11/26 05:22:10;;;;;;;3.30;1.70;;;1.70;99.90;;;;;;5095350;28;20172;-38
2023/11/26 05:24:37;;;;;;;3.47;1.77;;;1.70;99.90;;;;;;5095134;28;20543;-39
2023/11/26 05:27:03;;;;;;;3.87;2.23;;;1.70;99.90;;;;;;5094327;28;20176;-38
2023/11/26 05:29:28;;;;;;;5.50;1.97;;;1.70;99.90;;;;;;5094065;28;20441;-41
2023/11/26 05:31:54;;;;;;;4.13;1.97;;;1.80;99.90;;;;;;5094870;28;20365;-38
2023/11/26 05:34:20;;;;;;;2.30;1.70;;;1.80;99.90;;;;;;5094280;28;20176;-39
2023/11/26 05:36:46;;;;;;;2.50;1.70;;;1.80;99.90;;;;;;5094235;28;20210;-38
2023/11/26 05:39:11;;;;;;;2.37;1.80;;;1.80;99.90;;;;;;5093735;28;20185;-38
2023/11/26 05:41:37;;;;;;;3.60;1.40;;;1.80;99.90;;;;;;5095412;28;20452;-41
2023/11/26 05:44:04;;;;;;;2.20;1.67;;;1.80;99.90;;;;;;5096081;28;20601;-39
2023/11/26 05:46:30;;;;;;;5.07;1.97;;;1.80;99.90;;;;;;5096799;28;20172;-41
2023/11/26 05:48:55;;;;;;;2.10;1.90;;;1.80;99.90;;;;;;5096537;28;20441;-38
2023/11/26 05:51:22;;;;;;;2.33;1.43;;;1.80;99.90;;;;;;5096393;28;20176;-38
2023/11/26 05:53:47;;;;;;;3.50;1.90;;;1.80;99.90;;;;;;5096651;28;20180;-39
2023/11/26 05:56:13;;;;;;;1.93;1.70;;;1.70;99.90;;;;;;5096592;28;20418;-39
2023/11/26 05:58:38;;;;;;;2.53;1.80;;;1.70;99.90;;;;;;5097316;28;20208;-39
2023/11/26 06:01:04;;;;;;;4.33;1.97;;;1.70;99.90;;;;;;5095814;28;20250;-37
2023/11/26 06:03:30;;;;;;;3.13;1.50;;;1.70;99.90;;;;;;5096721;28;20222;-38
2023/11/26 06:05:55;;;;;;;2.50;2.00;;;1.70;99.90;;;;;;5100834;28;20208;-38
2023/11/26 06:08:21;;;;;;;3.57;1.90;;;1.70;99.90;;;;;;5100267;28;20575;-37
2023/11/26 06:10:47;;;;;;;2.43;1.80;;;1.70;99.90;;;;;;5100613;28;20187;-39
2023/11/26 06:13:12;;;;;;;2.77;1.87;;;1.70;99.90;;;;;;5100326;28;20180;-37
2023/11/26 06:15:39;;;;;;;2.23;1.80;;;1.70;99.90;;;;;;5100085;28;20194;-37
2023/11/26 06:18:05;;;;;;;3.83;2.33;;;1.70;99.90;;;;;;5100985;28;20180;-42
2023/11/26 06:20:31;;;;;;;5.97;2.20;;;1.70;99.90;;;;;;5100519;28;20425;-39
2023/11/26 06:22:57;;;;;;;1.67;1.57;;;1.70;99.90;;;;;;5101123;28;20429;-39
2023/11/26 06:25:24;;;;;;;2.97;1.70;;;1.70;99.90;;;;;;5081689;28;20553;-40
2023/11/26 06:27:49;;;;;;;2.63;1.93;;;1.70;99.90;;;;;;5081558;28;20271;-39
2023/11/26 06:30:15;;;;;;;2.67;1.83;;;1.70;99.90;;;;;;5099973;28;20564;-38
2023/11/26 06:32:42;;;;;;;2.93;1.47;;;1.70;99.90;;;;;;5099538;28;20173;-41
2023/11/26 06:35:08;;;;;;;4.10;2.53;;;1.70;99.90;;;;;;5098697;28;20173;-38
2023/11/26 06:37:34;;;;;;;5.53;1.80;;;1.70;99.90;;;;;;5098467;28;20916;-40
2023/11/26 06:40:00;;;;;;;4.30;1.90;;;1.70;99.90;;;;;;5097908;28;20434;-38
2023/11/26 06:42:25;;;;;;;2.10;1.30;;;1.70;99.90;;;;;;5098733;28;20430;-39
2023/11/26 06:44:51;;;;;;;2.30;1.90;;;1.70;99.90;;;;;;5097538;28;20203;-39
2023/11/26 06:47:17;;;;;;;2.63;1.50;;;1.70;99.90;;;;;;5097850;28;20195;-39
2023/11/26 06:49:42;;;;;;;4.23;1.93;;;1.70;99.90;;;;;;5097588;28;20176;-42
2023/11/26 06:52:08;;;;;;;3.23;2.20;;;1.80;99.90;;;;;;5096635;28;20172;-39
2023/11/26 06:54:33;;;;;;;2.03;1.40;;;1.80;99.90;;;;;;5097167;28;20555;-37
2023/11/26 06:56:59;;;;;;;3.90;2.60;;;1.80;99.90;;;;;;5097233;28;20184;-36
2023/11/26 06:59:25;;;;;;;4.23;2.20;;;1.80;99.90;;;;;;5096772;28;20220;-38
2023/11/26 07:01:50;;;;;;;2.80;2.20;;;1.80;99.90;;;;;;5097720;28;20176;-38
2023/11/26 07:04:16;;;;;;;2.70;2.07;;;1.90;99.90;;;;;;5098289;28;20208;-38
2023/11/26 07:06:45;;;;;;;5.43;4.43;;;1.90;99.90;;;;;;5098769;28;20433;-40
2023/11/26 07:09:10;;;;;;;6.00;4.73;;;1.90;99.90;;;;;;5098246;28;20173;-39
2023/11/26 07:11:36;;;;;;;4.30;3.90;;;2.00;99.90;;;;;;5097651;28;20853;-39
2023/11/26 07:14:06;;;;;;;3.40;2.83;;;2.00;99.90;;;;;;5098235;28;20183;-40
2023/11/26 07:16:31;;;;;;;3.10;2.03;;;2.00;99.90;;;;;;5096917;28;20511;-39
2023/11/26 07:18:57;;;;;;;6.70;5.57;;;2.10;99.90;;;;;;5097724;28;20579;-41
2023/11/26 07:21:23;;;;;;;4.00;3.40;;;2.10;99.90;;;;;;5098635;28;20237;-39
2023/11/26 07:23:50;;;;;;;2.87;2.23;;;2.20;99.90;;;;;;5097811;28;20563;-39
2023/11/26 07:26:21;;;;;;;5.03;2.83;;;2.10;99.90;;;;;;5097488;28;20176;-40
2023/11/26 07:28:50;;;;;;;3.70;2.40;;;2.10;99.90;;;;;;5098965;28;20478;-39
2023/11/26 07:31:18;;;;;;;3.30;2.60;;;2.20;99.90;;;;;;5098920;28;20696;-39
2023/11/26 07:33:43;;;;;;;7.60;2.67;;;2.20;99.90;;;;;;5099030;28;20676;-40
2023/11/26 07:36:22;;;;;;;5.63;2.77;;;2.20;99.90;;;;;;5098078;28;20434;-40
2023/11/26 07:39:00;;;;;;;3.93;3.13;;;2.20;99.90;;;;;;5099097;28;20402;-39
2023/11/26 07:41:26;;;;;;;4.37;3.23;;;2.20;99.90;;;;;;5097566;28;20861;-38
2023/11/26 07:43:53;;;;;;;3.50;2.87;;;2.20;99.90;;;;;;5097492;28;20505;-39
2023/11/26 07:46:19;;;;;;;5.43;3.33;;;2.20;99.90;;;;;;5096658;28;20554;-39
2023/11/26 07:48:48;;;;;;;4.50;3.57;;;2.20;99.90;;;;;;5078746;28;20430;-40
2023/11/26 07:51:14;;;;;;;7.03;3.77;;;2.20;99.90;;;;;;5096920;28;20762;-38
2023/11/26 07:53:40;;;;;;;4.43;3.40;;;2.20;99.90;;;;;;5098257;28;20418;-38
2023/11/26 07:56:07;;;;;;;5.13;3.50;;;2.20;99.90;;;;;;5097276;28;20521;-39
2023/11/26 07:58:33;;;;;;;5.80;3.90;;;2.30;99.90;;;;;;5094968;28;20533;-39
2023/11/26 08:01:02;;;;;;;9.07;3.77;;;2.40;99.90;;;;;;5097839;28;20827;-38
2023/11/26 08:03:28;;;;;;;4.70;3.60;;;2.30;99.90;;;;;;5079944;28;20391;-38
2023/11/26 08:05:54;;;;;;;5.60;4.10;;;2.30;99.90;;;;;;5095448;28;20431;-40
2023/11/26 08:08:22;;;;;;;4.50;4.10;;;2.40;99.90;;;;;;5096593;28;20898;-40
2023/11/26 08:10:48;;;;;;;5.10;3.93;;;2.30;99.90;;;;;;5096567;28;20190;-38
2023/11/26 08:13:14;;;;;;;6.87;4.00;;;2.40;99.90;;;;;;5096853;28;20472;-37
2023/11/26 08:15:40;;;;;;;4.50;3.60;;;2.40;99.90;;;;;;5080078;28;20411;-38
2023/11/26 08:18:08;;;;;;;7.20;4.10;;;2.30;99.90;;;;;;5062353;28;20423;-38
2023/11/26 08:20:34;;;;;;;5.13;4.63;;;2.30;99.90;;;;;;5096733;28;20173;-40
2023/11/26 08:23:01;;;;;;;8.90;4.00;;;2.30;99.90;;;;;;5078902;28;20752;-38
2023/11/26 08:25:33;;;;;;;8.00;4.13;;;2.30;99.90;;;;;;5096975;28;20466;-39
2023/11/26 08:28:00;;;;;;;7.00;4.67;;;2.30;99.90;;;;;;5095960;28;20422;-39
2023/11/26 08:30:32;;;;;;;5.60;4.87;;;2.30;99.90;;;;;;5080164;28;20472;-39
2023/11/26 08:33:02;;;;;;;4.70;4.20;;;2.30;99.90;;;;;;5078469;28;20914;-38
2023/11/26 08:35:31;;;;;;;5.10;4.50;;;2.40;99.90;;;;;;5096169;28;20449;-38
2023/11/26 08:37:57;;;;;;;7.30;4.27;;;2.40;99.90;;;;;;5079678;28;20508;-38
2023/11/26 08:40:23;;;;;;;5.20;4.10;;;2.40;99.90;;;;;;5097363;28;20453;-43
2023/11/26 08:42:48;;;;;;;5.37;4.57;;;2.50;99.90;;;;;;5096313;28;20251;-39
2023/11/26 08:45:15;;;;;;;6.77;4.83;;;2.60;99.90;;;;;;5096845;28;20917;-38
2023/11/26 08:47:47;;;;;;;6.87;4.03;;;2.70;99.90;;;;;;5096083;28;20705;-39
2023/11/26 08:50:13;;;;;;;9.50;2.60;;;2.90;99.90;;;;;;5096393;28;20433;-42
2023/11/26 08:52:39;;;;;;;8.83;4.00;;;5.50;1.00;;;;;;5096401;28;20468;-43
2023/11/26 08:55:05;;;;;;;14.90;9.10;;;8.20;1.00;;;;;;5093963;28;20466;-39
2023/11/26 08:57:38;;;;;;;12.53;7.90;;;9.30;1.00;;;;;;5075011;28;20259;-38
2023/11/26 09:00:09;;;;;;;9.33;6.20;;;8.80;1.00;;;;;;5092797;28;20426;-38
2023/11/26 09:02:38;;;;;;;4.30;3.90;;;8.50;1.00;;;;;;5094213;28;20509;-38
2023/11/26 09:05:08;;;;;;;7.00;5.23;;;8.70;1.00;;;;;;5095437;28;21055;-39
2023/11/26 09:07:45;;;;;;;5.47;4.97;;;8.90;1.00;;;;;;5096669;28;20531;-38
2023/11/26 09:10:12;;;;;;;5.90;4.00;;;9.20;1.00;;;;;;5096858;28;20483;-38
2023/11/26 09:12:37;;;;;;;5.57;4.90;;;9.30;99.90;;;;;;5079330;28;20415;-39
2023/11/26 09:15:07;;;;;;;4.40;3.60;;;9.60;11.70;;;;;;5096435;28;20430;-40
2023/11/26 09:17:33;;;;;;;5.40;3.57;;;10.00;1.00;;;;;;5094804;28;20176;-38
2023/11/26 09:19:59;;;;;;;4.33;3.60;;;10.60;99.90;;;;;;5095104;28;20458;-41
2023/11/26 09:22:24;;;;;;;3.93;3.30;;;11.30;1.00;;;;;;5095353;28;20906;-40
2023/11/26 09:24:50;;;;;;;3.40;3.10;;;12.20;1.00;;;;;;5076574;28;20592;-42
2023/11/26 09:27:16;;;;;;;4.30;3.37;;;13.00;1.00;;;;;;5092574;28;20177;-41
2023/11/26 09:29:42;;;;;;;5.93;3.80;;;14.00;1.00;;;;;;5093146;28;20184;-41
2023/11/26 09:32:08;;;;;;;3.30;2.87;;;13.80;1.00;;;;;;5093607;28;20252;-40
2023/11/26 09:34:34;;;;;;;4.87;2.80;;;13.00;1.00;;;;;;5094123;28;20529;-40
2023/11/26 09:37:04;;;;;;;3.60;3.30;;;12.80;1.00;;;;;;5096204;28;20433;-40
2023/11/26 09:39:33;;;;;;;3.67;2.90;;;12.30;1.00;;;;;;5092922;28;20418;-43
2023/11/26 09:42:03;;;;;;;4.70;3.37;;;12.00;1.00;;;;;;5094237;28;20525;-39
2023/11/26 09:44:29;;;;;;;6.33;3.87;;;11.90;1.00;;;;;;5093838;28;20747;-40
2023/11/26 09:46:55;;;;;;;4.10;3.00;;;12.70;1.00;;;;;;5094539;28;20422;-41
2023/11/26 09:49:21;;;;;;;3.90;3.10;;;13.80;1.00;;;;;;5096277;28;20437;-41
2023/11/26 09:51:59;;;;;;;3.47;2.73;;;14.80;1.00;;;;;;5096141;28;20414;-39
2023/11/26 09:54:24;;;;;;;5.13;3.50;;;14.50;1.00;;;;;;5096261;28;20414;-39
2023/11/26 09:56:59;;;;;;;4.47;3.63;;;14.80;1.00;;;;;;5095633;28;20441;-43
2023/11/26 09:59:32;;;;;;;4.00;3.50;;;14.50;1.00;;;;;;5094631;28;20194;-39
2023/11/26 10:02:02;;;;;;;5.10;3.37;;;12.90;1.00;;;;;;5092575;28;20521;-39
2023/11/26 10:04:28;;;;;;;4.90;4.40;;;13.30;1.00;;;;;;5091078;28;20580;-40
2023/11/26 10:06:55;;;;;;;4.57;3.37;;;14.60;1.00;;;;;;5075486;28;20497;-43
2023/11/26 10:09:21;;;;;;;5.00;3.93;;;15.00;1.00;;;;;;5092329;28;20792;-41
2023/11/26 10:11:48;;;;;;;6.70;4.07;;;14.90;1.00;;;;;;5093465;28;20419;-42
2023/11/26 10:14:20;;;;;;;5.20;3.23;;;12.70;1.00;;;;;;5091635;28;20942;-39
2023/11/26 10:16:46;;;;;;;7.30;3.10;;;11.40;1.00;;;;;;5074840;28;20876;-38
2023/11/26 10:19:23;;;;;;;6.10;3.43;;;11.60;1.00;;;;;;5074616;28;20442;-39
2023/11/26 10:21:53;;;;;;;3.53;2.90;;;10.90;1.00;;;;;;5093848;28;20438;-39
2023/11/26 10:24:21;;;;;;;3.80;3.20;;;10.10;1.00;;;;;;5094102;28;20568;-40
2023/11/26 10:26:47;;;;;;;4.00;3.60;;;9.10;23.70;;;;;;5091306;28;20455;-39
2023/11/26 10:29:13;;;;;;;3.50;3.20;;;8.60;99.90;;;;;;5073421;28;20506;-38
2023/11/26 10:31:44;;;;;;;5.57;3.80;;;8.30;99.90;;;;;;5074044;28;20569;-38
2023/11/26 10:34:14;;;;;;;3.77;3.30;;;7.60;1.00;;;;;;5073843;28;20431;-39
2023/11/26 10:36:41;;;;;;;6.33;3.70;;;7.40;1.00;;;;;;5091327;28;20414;-39
2023/11/26 10:39:11;;;;;;;4.80;3.30;;;7.40;99.90;;;;;;5091581;28;20479;-41
2023/11/26 10:41:37;;;;;;;4.57;3.23;;;8.20;99.90;;;;;;5074909;28;20425;-38
2023/11/26 10:44:05;;;;;;;5.60;2.90;;;9.30;99.90;;;;;;5074806;28;20729;-41
2023/11/26 10:46:34;;;;;;;3.20;2.70;;;10.20;1.00;;;;;;5094081;28;20430;-39
2023/11/26 10:49:06;;;;;;;3.43;2.90;;;10.20;1.00;;;;;;5076257;28;20418;-44
2023/11/26 10:51:34;;;;;;;4.10;2.90;;;11.00;1.00;;;;;;5079150;28;20688;-40
2023/11/26 10:54:10;;;;;;;4.90;2.97;;;10.70;1.00;;;;;;5080777;28;20480;-40
2023/11/26 10:56:38;;;;;;;3.93;2.70;;;11.50;1.00;;;;;;5098966;28;20437;-39
2023/11/26 10:59:07;;;;;;;4.00;2.60;;;12.80;1.00;;;;;;5098774;28;20430;-39
2023/11/26 11:01:34;;;;;;;3.57;2.77;;;13.70;1.00;;;;;;5099276;28;20440;-40
2023/11/26 11:04:00;;;;;;;3.00;2.80;;;13.40;1.00;;;;;;5081519;28;20532;-38
2023/11/26 11:06:27;;;;;;;4.10;2.90;;;12.40;1.00;;;;;;5079237;28;20422;-39
2023/11/26 11:08:53;;;;;;;4.27;3.03;;;11.60;1.00;;;;;;5079098;28;20453;-39
2023/11/26 11:11:46;;;;;;;5.00;3.03;;;10.50;1.00;;;;;;5062776;28;20922;-40
2023/11/26 11:14:12;;;;;;;4.47;3.30;;;10.00;1.00;;;;;;5096174;28;20438;-42
2023/11/26 11:16:38;;;;;;;3.93;3.03;;;9.10;1.00;;;;;;5079553;28;20464;-40
2023/11/26 11:19:03;;;;;;;3.73;3.10;;;9.00;1.00;;;;;;5078845;28;20766;-39
2023/11/26 11:21:29;;;;;;;3.80;3.40;;;8.70;11.20;;;;;;5096832;28;20423;-39
2023/11/26 11:23:55;;;;;;;3.33;3.03;;;8.20;99.90;;;;;;5079643;28;20725;-40
2023/11/26 11:26:23;;;;;;;3.40;2.97;;;7.70;99.90;;;;;;5097020;28;20613;-40
2023/11/26 11:28:51;;;;;;;3.40;2.93;;;7.40;1.00;;;;;;5093750;28;20747;-40
2023/11/26 11:31:18;;;;;;;3.47;3.17;;;7.10;1.00;;;;;;5095762;28;20577;-41
2023/11/26 11:33:56;;;;;;;4.80;3.60;;;7.10;7.10;;;;;;5095517;28;20464;-39
2023/11/26 11:36:40;;;;;;;4.33;3.07;;;7.00;1.00;;;;;;5095800;28;20680;-39
2023/11/26 11:39:06;;;;;;;4.33;2.87;;;6.80;99.90;;;;;;5096588;28;20414;-40
2023/11/26 11:41:57;;;;;;;4.30;2.70;;;6.60;1.00;;;;;;5079517;28;20422;-39
2023/11/26 11:44:27;;;;;;;3.40;2.30;;;6.40;99.90;;;;;;5097837;28;21106;-39
2023/11/26 11:46:54;;;;;;;5.80;2.33;;;6.30;99.90;;;;;;5079937;28;20415;-39
2023/11/26 11:49:20;;;;;;;2.80;2.47;;;6.50;99.90;;;;;;5096838;28;20995;-39
2023/11/26 11:51:46;;;;;;;3.43;2.70;;;6.40;1.00;;;;;;5096656;28;20538;-42
2023/11/26 11:54:25;;;;;;;4.50;2.90;;;6.50;99.90;;;;;;5097187;28;20438;-42
2023/11/26 11:56:58;;;;;;;4.47;2.37;;;6.30;1.00;;;;;;5095496;28;20192;-39
2023/11/26 11:59:24;;;;;;;4.97;2.77;;;6.20;99.90;;;;;;5094920;28;20462;-40
2023/11/26 12:01:51;;;;;;;3.60;2.60;;;6.10;1.00;;;;;;5095650;28;20953;-41
2023/11/26 12:04:18;;;;;;;3.97;2.53;;;6.00;99.90;;;;;;5095754;28;20462;-41
2023/11/26 12:06:53;;;;;;;7.20;4.47;;;6.00;1.00;;;;;;5078169;28;20419;-40
2023/11/26 12:09:19;;;;;;;7.67;5.17;;;5.90;1.00;;;;;;5094301;28;20429;-40
2023/11/26 12:11:48;;;;;;;8.47;5.63;;;5.80;1.00;;;;;;5095463;28;20433;-39
2023/11/26 12:14:24;;;;;;;5.60;4.53;;;5.80;97.10;;;;;;5077653;28;20919;-40
2023/11/26 12:16:50;;;;;;;16.23;10.67;;;5.90;99.90;;;;;;5096615;28;20414;-41
2023/11/26 12:19:16;;;;;;;6.10;3.90;;;6.00;1.00;;;;;;5095764;28;20417;-40
2023/11/26 12:21:42;;;;;;;12.20;8.37;;;6.10;1.00;;;;;;5077191;28;20255;-40
2023/11/26 12:24:21;;;;;;;57.87;29.57;;;6.20;1.00;;;;;;5077741;28;20767;-39
2023/11/26 12:26:47;;;;;;;8.90;6.07;;;6.50;1.00;;;;;;5077394;28;20593;-40
2023/11/26 12:29:21;;;;;;;6.10;5.50;;;6.60;99.90;;;;;;5094655;28;20495;-40
2023/11/26 12:31:47;;;;;;;3.97;3.03;;;6.70;1.00;;;;;;5077160;28;20291;-40
2023/11/26 12:34:12;;;;;;;3.07;2.70;;;6.60;1.00;;;;;;5095456;28;20429;-40
2023/11/26 12:36:38;;;;;;;5.40;2.83;;;6.60;1.00;;;;;;5096122;28;20257;-41
2023/11/26 12:39:04;;;;;;;4.83;2.77;;;6.90;1.00;;;;;;5078260;28;20282;-42
2023/11/26 12:41:30;;;;;;;5.63;2.27;;;7.20;99.90;;;;;;5061397;28;20442;-40
2023/11/26 12:44:01;;;;;;;5.87;2.33;;;7.70;99.90;;;;;;5095017;28;20184;-40
2023/11/26 12:46:27;;;;;;;4.00;2.07;;;7.80;1.00;;;;;;5094540;28;20185;-40
2023/11/26 12:48:54;;;;;;;12.43;3.73;;;7.90;1.00;;;;;;5093525;28;20832;-39
2023/11/26 12:51:20;;;;;;;7.93;3.53;;;10.20;1.00;;;;;;5094496;28;20210;-40
2023/11/26 12:53:51;;;;;;;6.20;2.90;;;11.30;99.90;;;;;;5094749;28;20473;-38
2023/11/26 12:56:22;;;;;;;4.07;2.70;;;12.20;5.60;;;;;;5096593;28;20275;-38
2023/11/26 12:58:47;;;;;;;3.80;2.07;;;11.60;1.00;;;;;;5096525;28;20498;-38
2023/11/26 13:01:24;;;;;;;6.70;2.10;;;10.80;1.00;;;;;;5076140;28;20518;-38
2023/11/26 13:03:49;;;;;;;4.23;2.37;;;10.20;1.00;;;;;;5095544;28;20200;-40